sensor_id;sensor_type;location;lat;lon;timestamp;P1;durP1;ratioP1;P2;durP2;ratioP2
47287;SDS011;33020;53.008;13.558;2022-12-07T00:02:08;11.53;;;6.80;;
47287;SDS011;33020;53.008;13.558;2022-12-07T00:04:52;10.80;;;6.10;;
47287;SDS011;33020;53.008;13.558;2022-12-07T00:07:25;12.50;;;6.03;;
47287;SDS011;33020;53.008;13.558;2022-12-07T00:09:53;10.27;;;5.93;;
47287;SDS011;33020;53.008;13.558;2022-12-07T00:12:22;11.77;;;6.57;;
47287;SDS011;33020;53.008;13.558;2022-12-07T00:14:53;13.70;;;6.73;;
47287;SDS011;33020;53.008;13.558;2022-12-07T00:17:37;12.00;;;6.13;;
47287;SDS011;33020;53.008;13.558;2022-12-07T00:20:16;12.20;;;6.40;;
47287;SDS011;33020;53.008;13.558;2022-12-07T00:22:43;10.90;;;5.47;;
47287;SDS011;33020;53.008;13.558;2022-12-07T00:25:28;9.67;;;5.50;;
47287;SDS011;33020;53.008;13.558;2022-12-07T00:28:00;10.00;;;5.40;;
47287;SDS011;33020;53.008;13.558;2022-12-07T00:30:38;10.97;;;5.77;;
47287;SDS011;33020;53.008;13.558;2022-12-07T00:33:07;8.63;;;5.43;;
47287;SDS011;33020;53.008;13.558;2022-12-07T00:35:47;10.87;;;5.67;;
47287;SDS011;33020;53.008;13.558;2022-12-07T00:38:27;10.73;;;5.50;;
47287;SDS011;33020;53.008;13.558;2022-12-07T00:41:03;10.63;;;5.37;;
47287;SDS011;33020;53.008;13.558;2022-12-07T00:46:30;11.40;;;6.23;;
47287;SDS011;33020;53.008;13.558;2022-12-07T00:48:57;12.60;;;6.27;;
47287;SDS011;33020;53.008;13.558;2022-12-07T00:51:26;11.77;;;6.40;;
47287;SDS011;33020;53.008;13.558;2022-12-07T00:53:53;12.87;;;6.60;;
47287;SDS011;33020;53.008;13.558;2022-12-07T00:56:21;9.37;;;6.20;;
47287;SDS011;33020;53.008;13.558;2022-12-07T00:58:50;10.53;;;6.33;;
47287;SDS011;33020;53.008;13.558;2022-12-07T01:01:18;11.03;;;6.17;;
47287;SDS011;33020;53.008;13.558;2022-12-07T01:03:45;12.40;;;6.30;;
47287;SDS011;33020;53.008;13.558;2022-12-07T01:06:19;11.30;;;6.50;;
47287;SDS011;33020;53.008;13.558;2022-12-07T01:08:47;12.13;;;6.20;;
47287;SDS011;33020;53.008;13.558;2022-12-07T01:11:15;13.33;;;6.43;;
47287;SDS011;33020;53.008;13.558;2022-12-07T01:13:44;13.10;;;7.60;;
47287;SDS011;33020;53.008;13.558;2022-12-07T01:16:13;12.13;;;6.53;;
47287;SDS011;33020;53.008;13.558;2022-12-07T01:18:42;12.77;;;6.53;;
47287;SDS011;33020;53.008;13.558;2022-12-07T01:21:10;14.17;;;6.40;;
47287;SDS011;33020;53.008;13.558;2022-12-07T01:23:38;12.20;;;7.60;;
47287;SDS011;33020;53.008;13.558;2022-12-07T01:26:06;13.57;;;6.80;;
47287;SDS011;33020;53.008;13.558;2022-12-07T01:28:35;12.67;;;6.33;;
47287;SDS011;33020;53.008;13.558;2022-12-07T01:31:03;14.13;;;6.77;;
47287;SDS011;33020;53.008;13.558;2022-12-07T01:33:34;13.80;;;6.77;;
47287;SDS011;33020;53.008;13.558;2022-12-07T01:36:03;15.13;;;7.20;;
47287;SDS011;33020;53.008;13.558;2022-12-07T01:38:31;11.90;;;6.63;;
47287;SDS011;33020;53.008;13.558;2022-12-07T01:40:58;17.47;;;7.53;;
47287;SDS011;33020;53.008;13.558;2022-12-07T01:43:28;13.57;;;7.10;;
47287;SDS011;33020;53.008;13.558;2022-12-07T01:45:56;18.13;;;8.90;;
47287;SDS011;33020;53.008;13.558;2022-12-07T01:48:33;12.80;;;7.10;;
47287;SDS011;33020;53.008;13.558;2022-12-07T01:51:04;17.17;;;8.23;;
47287;SDS011;33020;53.008;13.558;2022-12-07T01:53:33;16.67;;;8.07;;
47287;SDS011;33020;53.008;13.558;2022-12-07T01:56:01;14.70;;;8.33;;
47287;SDS011;33020;53.008;13.558;2022-12-07T01:58:28;17.07;;;7.97;;
47287;SDS011;33020;53.008;13.558;2022-12-07T02:00:54;17.27;;;8.20;;
47287;SDS011;33020;53.008;13.558;2022-12-07T02:03:22;18.37;;;9.07;;
47287;SDS011;33020;53.008;13.558;2022-12-07T02:05:51;17.63;;;9.37;;
47287;SDS011;33020;53.008;13.558;2022-12-07T02:08:19;17.67;;;8.93;;
47287;SDS011;33020;53.008;13.558;2022-12-07T02:10:46;18.07;;;8.00;;
47287;SDS011;33020;53.008;13.558;2022-12-07T02:13:14;19.17;;;9.47;;
47287;SDS011;33020;53.008;13.558;2022-12-07T02:21:19;17.53;;;9.77;;
47287;SDS011;33020;53.008;13.558;2022-12-07T02:23:59;18.33;;;9.07;;
47287;SDS011;33020;53.008;13.558;2022-12-07T02:26:59;15.47;;;8.97;;
47287;SDS011;33020;53.008;13.558;2022-12-07T02:29:33;19.10;;;10.13;;
47287;SDS011;33020;53.008;13.558;2022-12-07T02:32:04;17.53;;;9.13;;
47287;SDS011;33020;53.008;13.558;2022-12-07T02:34:47;21.40;;;9.63;;
47287;SDS011;33020;53.008;13.558;2022-12-07T02:40:04;19.17;;;10.00;;
47287;SDS011;33020;53.008;13.558;2022-12-07T02:42:45;18.73;;;9.20;;
47287;SDS011;33020;53.008;13.558;2022-12-07T02:45:14;19.47;;;9.77;;
47287;SDS011;33020;53.008;13.558;2022-12-07T02:47:43;18.87;;;9.30;;
47287;SDS011;33020;53.008;13.558;2022-12-07T02:50:10;18.70;;;8.53;;
47287;SDS011;33020;53.008;13.558;2022-12-07T02:52:38;19.67;;;9.67;;
47287;SDS011;33020;53.008;13.558;2022-12-07T02:55:04;18.07;;;9.10;;
47287;SDS011;33020;53.008;13.558;2022-12-07T02:57:47;18.33;;;9.27;;
47287;SDS011;33020;53.008;13.558;2022-12-07T03:00:21;19.37;;;9.47;;
47287;SDS011;33020;53.008;13.558;2022-12-07T03:02:56;21.33;;;8.80;;
47287;SDS011;33020;53.008;13.558;2022-12-07T03:05:40;16.57;;;7.87;;
47287;SDS011;33020;53.008;13.558;2022-12-07T03:13:34;17.93;;;8.70;;
47287;SDS011;33020;53.008;13.558;2022-12-07T03:16:23;18.38;;;10.57;;
47287;SDS011;33020;53.008;13.558;2022-12-07T03:18:57;17.10;;;8.57;;
47287;SDS011;33020;53.008;13.558;2022-12-07T03:21:32;19.73;;;9.73;;
47287;SDS011;33020;53.008;13.558;2022-12-07T03:24:03;21.07;;;9.73;;
47287;SDS011;33020;53.008;13.558;2022-12-07T03:26:36;20.07;;;9.27;;
47287;SDS011;33020;53.008;13.558;2022-12-07T03:29:12;18.60;;;8.83;;
47287;SDS011;33020;53.008;13.558;2022-12-07T03:31:45;14.87;;;7.20;;
47287;SDS011;33020;53.008;13.558;2022-12-07T03:34:16;18.27;;;8.17;;
47287;SDS011;33020;53.008;13.558;2022-12-07T03:36:49;14.40;;;7.83;;
47287;SDS011;33020;53.008;13.558;2022-12-07T03:41:48;16.17;;;7.47;;
47287;SDS011;33020;53.008;13.558;2022-12-07T03:44:15;17.23;;;9.07;;
47287;SDS011;33020;53.008;13.558;2022-12-07T03:52:20;17.97;;;9.40;;
47287;SDS011;33020;53.008;13.558;2022-12-07T03:54:56;15.27;;;7.30;;
47287;SDS011;33020;53.008;13.558;2022-12-07T03:57:26;15.77;;;7.93;;
47287;SDS011;33020;53.008;13.558;2022-12-07T03:59:54;13.47;;;7.00;;
47287;SDS011;33020;53.008;13.558;2022-12-07T04:02:21;14.37;;;7.43;;
47287;SDS011;33020;53.008;13.558;2022-12-07T04:04:48;17.97;;;7.77;;
47287;SDS011;33020;53.008;13.558;2022-12-07T04:07:15;13.30;;;7.37;;
47287;SDS011;33020;53.008;13.558;2022-12-07T04:09:42;17.30;;;8.47;;
47287;SDS011;33020;53.008;13.558;2022-12-07T04:12:09;13.63;;;7.47;;
47287;SDS011;33020;53.008;13.558;2022-12-07T04:14:35;17.70;;;8.17;;
47287;SDS011;33020;53.008;13.558;2022-12-07T04:17:02;15.07;;;7.53;;
47287;SDS011;33020;53.008;13.558;2022-12-07T04:19:30;16.10;;;8.13;;
47287;SDS011;33020;53.008;13.558;2022-12-07T04:21:59;14.40;;;7.37;;
47287;SDS011;33020;53.008;13.558;2022-12-07T04:24:27;14.47;;;7.50;;
47287;SDS011;33020;53.008;13.558;2022-12-07T04:26:54;14.97;;;7.67;;
47287;SDS011;33020;53.008;13.558;2022-12-07T04:29:21;17.10;;;8.27;;
47287;SDS011;33020;53.008;13.558;2022-12-07T04:31:48;16.77;;;8.27;;
47287;SDS011;33020;53.008;13.558;2022-12-07T04:34:16;14.13;;;8.27;;
47287;SDS011;33020;53.008;13.558;2022-12-07T04:36:43;16.77;;;8.30;;
47287;SDS011;33020;53.008;13.558;2022-12-07T04:39:21;13.50;;;7.47;;
47287;SDS011;33020;53.008;13.558;2022-12-07T04:41:49;17.87;;;9.50;;
47287;SDS011;33020;53.008;13.558;2022-12-07T04:44:17;15.20;;;9.03;;
47287;SDS011;33020;53.008;13.558;2022-12-07T04:46:44;16.93;;;8.30;;
47287;SDS011;33020;53.008;13.558;2022-12-07T04:49:11;15.67;;;8.80;;
47287;SDS011;33020;53.008;13.558;2022-12-07T04:51:38;18.30;;;9.67;;
47287;SDS011;33020;53.008;13.558;2022-12-07T04:54:05;16.13;;;8.43;;
47287;SDS011;33020;53.008;13.558;2022-12-07T04:56:32;17.60;;;8.27;;
47287;SDS011;33020;53.008;13.558;2022-12-07T04:59:01;16.07;;;8.80;;
47287;SDS011;33020;53.008;13.558;2022-12-07T05:01:28;16.67;;;9.17;;
47287;SDS011;33020;53.008;13.558;2022-12-07T05:03:55;15.13;;;7.97;;
47287;SDS011;33020;53.008;13.558;2022-12-07T05:06:22;16.23;;;9.00;;
47287;SDS011;33020;53.008;13.558;2022-12-07T05:08:49;17.17;;;8.37;;
47287;SDS011;33020;53.008;13.558;2022-12-07T05:11:16;16.77;;;9.53;;
47287;SDS011;33020;53.008;13.558;2022-12-07T05:14:02;19.43;;;9.53;;
47287;SDS011;33020;53.008;13.558;2022-12-07T05:16:29;17.23;;;8.60;;
47287;SDS011;33020;53.008;13.558;2022-12-07T05:18:56;20.63;;;9.63;;
47287;SDS011;33020;53.008;13.558;2022-12-07T05:21:23;17.50;;;9.13;;
47287;SDS011;33020;53.008;13.558;2022-12-07T05:23:50;22.73;;;10.37;;
47287;SDS011;33020;53.008;13.558;2022-12-07T05:26:17;28.17;;;13.07;;
47287;SDS011;33020;53.008;13.558;2022-12-07T05:28:43;24.20;;;13.37;;
47287;SDS011;33020;53.008;13.558;2022-12-07T05:31:10;27.23;;;14.23;;
47287;SDS011;33020;53.008;13.558;2022-12-07T05:33:37;26.00;;;12.17;;
47287;SDS011;33020;53.008;13.558;2022-12-07T05:36:03;25.17;;;12.47;;
47287;SDS011;33020;53.008;13.558;2022-12-07T05:38:32;25.73;;;13.17;;
47287;SDS011;33020;53.008;13.558;2022-12-07T05:41:02;25.17;;;11.60;;
47287;SDS011;33020;53.008;13.558;2022-12-07T05:43:29;26.40;;;13.13;;
47287;SDS011;33020;53.008;13.558;2022-12-07T05:45:56;27.97;;;13.33;;
47287;SDS011;33020;53.008;13.558;2022-12-07T05:48:23;27.90;;;14.13;;
47287;SDS011;33020;53.008;13.558;2022-12-07T05:50:50;26.87;;;12.57;;
47287;SDS011;33020;53.008;13.558;2022-12-07T05:53:17;29.17;;;15.03;;
47287;SDS011;33020;53.008;13.558;2022-12-07T05:55:48;31.73;;;13.20;;
47287;SDS011;33020;53.008;13.558;2022-12-07T05:58:15;31.60;;;13.23;;
47287;SDS011;33020;53.008;13.558;2022-12-07T06:01:00;30.77;;;13.13;;
47287;SDS011;33020;53.008;13.558;2022-12-07T06:03:27;24.90;;;13.20;;
47287;SDS011;33020;53.008;13.558;2022-12-07T06:05:54;24.63;;;13.30;;
47287;SDS011;33020;53.008;13.558;2022-12-07T06:08:20;26.57;;;12.83;;
47287;SDS011;33020;53.008;13.558;2022-12-07T06:10:47;28.40;;;12.40;;
47287;SDS011;33020;53.008;13.558;2022-12-07T06:13:34;28.07;;;12.93;;
47287;SDS011;33020;53.008;13.558;2022-12-07T06:16:01;31.47;;;14.20;;
47287;SDS011;33020;53.008;13.558;2022-12-07T06:18:28;30.13;;;13.73;;
47287;SDS011;33020;53.008;13.558;2022-12-07T06:20:54;27.27;;;13.13;;
47287;SDS011;33020;53.008;13.558;2022-12-07T06:23:21;28.83;;;13.47;;
47287;SDS011;33020;53.008;13.558;2022-12-07T06:25:48;28.77;;;13.83;;
47287;SDS011;33020;53.008;13.558;2022-12-07T06:28:14;29.17;;;14.53;;
47287;SDS011;33020;53.008;13.558;2022-12-07T06:30:41;33.30;;;14.67;;
47287;SDS011;33020;53.008;13.558;2022-12-07T06:33:07;31.60;;;13.27;;
47287;SDS011;33020;53.008;13.558;2022-12-07T06:35:34;34.43;;;14.20;;
47287;SDS011;33020;53.008;13.558;2022-12-07T06:38:01;29.87;;;14.73;;
47287;SDS011;33020;53.008;13.558;2022-12-07T06:40:27;28.53;;;13.87;;
47287;SDS011;33020;53.008;13.558;2022-12-07T06:42:54;32.67;;;15.07;;
47287;SDS011;33020;53.008;13.558;2022-12-07T06:45:21;30.70;;;14.47;;
47287;SDS011;33020;53.008;13.558;2022-12-07T06:47:47;32.50;;;13.77;;
47287;SDS011;33020;53.008;13.558;2022-12-07T06:50:14;27.17;;;13.73;;
47287;SDS011;33020;53.008;13.558;2022-12-07T06:52:41;29.03;;;13.30;;
47287;SDS011;33020;53.008;13.558;2022-12-07T06:55:08;29.87;;;14.17;;
47287;SDS011;33020;53.008;13.558;2022-12-07T06:57:34;34.70;;;14.67;;
47287;SDS011;33020;53.008;13.558;2022-12-07T07:00:01;32.27;;;15.10;;
47287;SDS011;33020;53.008;13.558;2022-12-07T07:02:29;33.27;;;15.47;;
47287;SDS011;33020;53.008;13.558;2022-12-07T07:04:56;30.63;;;15.47;;
47287;SDS011;33020;53.008;13.558;2022-12-07T07:07:23;33.40;;;15.03;;
47287;SDS011;33020;53.008;13.558;2022-12-07T07:09:50;29.97;;;14.33;;
47287;SDS011;33020;53.008;13.558;2022-12-07T07:12:17;30.77;;;14.60;;
47287;SDS011;33020;53.008;13.558;2022-12-07T07:14:43;31.33;;;15.07;;
47287;SDS011;33020;53.008;13.558;2022-12-07T07:17:10;27.53;;;13.70;;
47287;SDS011;33020;53.008;13.558;2022-12-07T07:19:36;29.97;;;14.03;;
47287;SDS011;33020;53.008;13.558;2022-12-07T07:22:04;26.67;;;11.63;;
47287;SDS011;33020;53.008;13.558;2022-12-07T07:24:31;30.13;;;13.33;;
47287;SDS011;33020;53.008;13.558;2022-12-07T07:26:57;26.67;;;11.40;;
47287;SDS011;33020;53.008;13.558;2022-12-07T07:29:24;22.27;;;11.47;;
47287;SDS011;33020;53.008;13.558;2022-12-07T07:31:50;23.10;;;11.47;;
47287;SDS011;33020;53.008;13.558;2022-12-07T07:34:17;26.37;;;12.17;;
47287;SDS011;33020;53.008;13.558;2022-12-07T07:36:44;20.53;;;12.07;;
47287;SDS011;33020;53.008;13.558;2022-12-07T07:39:11;22.10;;;11.07;;
47287;SDS011;33020;53.008;13.558;2022-12-07T07:41:39;21.10;;;10.27;;
47287;SDS011;33020;53.008;13.558;2022-12-07T07:44:05;23.80;;;10.77;;
47287;SDS011;33020;53.008;13.558;2022-12-07T07:46:32;19.30;;;10.13;;
47287;SDS011;33020;53.008;13.558;2022-12-07T07:48:59;16.33;;;8.77;;
47287;SDS011;33020;53.008;13.558;2022-12-07T07:51:26;16.77;;;8.97;;
47287;SDS011;33020;53.008;13.558;2022-12-07T07:53:53;15.00;;;8.13;;
47287;SDS011;33020;53.008;13.558;2022-12-07T07:56:20;13.97;;;7.73;;
47287;SDS011;33020;53.008;13.558;2022-12-07T07:58:46;14.80;;;8.07;;
47287;SDS011;33020;53.008;13.558;2022-12-07T08:01:13;16.13;;;8.23;;
47287;SDS011;33020;53.008;13.558;2022-12-07T08:03:41;15.93;;;7.27;;
47287;SDS011;33020;53.008;13.558;2022-12-07T08:06:08;11.83;;;6.43;;
47287;SDS011;33020;53.008;13.558;2022-12-07T08:08:34;11.77;;;7.00;;
47287;SDS011;33020;53.008;13.558;2022-12-07T08:11:04;12.33;;;6.57;;
47287;SDS011;33020;53.008;13.558;2022-12-07T08:13:31;12.77;;;7.13;;
47287;SDS011;33020;53.008;13.558;2022-12-07T08:15:58;11.70;;;5.73;;
47287;SDS011;33020;53.008;13.558;2022-12-07T08:18:29;10.47;;;6.17;;
47287;SDS011;33020;53.008;13.558;2022-12-07T08:21:00;8.67;;;4.80;;
47287;SDS011;33020;53.008;13.558;2022-12-07T08:23:29;10.80;;;6.27;;
47287;SDS011;33020;53.008;13.558;2022-12-07T08:26:06;9.33;;;5.47;;
47287;SDS011;33020;53.008;13.558;2022-12-07T08:28:34;8.53;;;4.40;;
47287;SDS011;33020;53.008;13.558;2022-12-07T08:31:02;8.37;;;5.40;;
47287;SDS011;33020;53.008;13.558;2022-12-07T08:33:33;10.20;;;5.03;;
47287;SDS011;33020;53.008;13.558;2022-12-07T08:36:04;8.83;;;4.87;;
47287;SDS011;33020;53.008;13.558;2022-12-07T08:38:34;10.87;;;6.10;;
47287;SDS011;33020;53.008;13.558;2022-12-07T08:41:01;9.33;;;4.43;;
47287;SDS011;33020;53.008;13.558;2022-12-07T08:43:28;7.00;;;4.23;;
47287;SDS011;33020;53.008;13.558;2022-12-07T08:48:49;8.00;;;4.60;;
47287;SDS011;33020;53.008;13.558;2022-12-07T08:51:18;7.80;;;4.53;;
47287;SDS011;33020;53.008;13.558;2022-12-07T08:53:46;8.80;;;4.70;;
47287;SDS011;33020;53.008;13.558;2022-12-07T08:56:12;8.77;;;4.57;;
47287;SDS011;33020;53.008;13.558;2022-12-07T08:58:39;10.63;;;4.67;;
47287;SDS011;33020;53.008;13.558;2022-12-07T09:01:07;7.03;;;4.30;;
47287;SDS011;33020;53.008;13.558;2022-12-07T09:03:33;6.53;;;4.23;;
47287;SDS011;33020;53.008;13.558;2022-12-07T09:06:00;6.57;;;3.70;;
47287;SDS011;33020;53.008;13.558;2022-12-07T09:08:46;10.27;;;5.30;;
47287;SDS011;33020;53.008;13.558;2022-12-07T09:11:14;7.43;;;4.40;;
47287;SDS011;33020;53.008;13.558;2022-12-07T09:13:41;10.43;;;6.03;;
47287;SDS011;33020;53.008;13.558;2022-12-07T09:16:07;9.07;;;5.27;;
47287;SDS011;33020;53.008;13.558;2022-12-07T09:18:34;6.93;;;4.20;;
47287;SDS011;33020;53.008;13.558;2022-12-07T09:21:00;9.60;;;4.97;;
47287;SDS011;33020;53.008;13.558;2022-12-07T09:23:27;7.00;;;4.80;;
47287;SDS011;33020;53.008;13.558;2022-12-07T09:25:54;6.67;;;3.80;;
47287;SDS011;33020;53.008;13.558;2022-12-07T09:28:20;9.90;;;4.47;;
47287;SDS011;33020;53.008;13.558;2022-12-07T09:30:48;8.30;;;4.37;;
47287;SDS011;33020;53.008;13.558;2022-12-07T09:33:35;5.60;;;3.60;;
47287;SDS011;33020;53.008;13.558;2022-12-07T09:36:01;7.33;;;4.77;;
47287;SDS011;33020;53.008;13.558;2022-12-07T09:38:30;6.27;;;4.13;;
47287;SDS011;33020;53.008;13.558;2022-12-07T09:40:57;4.97;;;2.90;;
47287;SDS011;33020;53.008;13.558;2022-12-07T09:43:30;8.53;;;5.77;;
47287;SDS011;33020;53.008;13.558;2022-12-07T09:45:57;9.30;;;6.80;;
47287;SDS011;33020;53.008;13.558;2022-12-07T09:48:31;8.63;;;5.53;;
47287;SDS011;33020;53.008;13.558;2022-12-07T09:50:59;5.67;;;3.83;;
47287;SDS011;33020;53.008;13.558;2022-12-07T09:53:28;4.87;;;3.00;;
47287;SDS011;33020;53.008;13.558;2022-12-07T09:58:28;6.00;;;3.10;;
47287;SDS011;33020;53.008;13.558;2022-12-07T10:03:36;3.40;;;2.43;;
47287;SDS011;33020;53.008;13.558;2022-12-07T10:06:04;2.83;;;1.90;;
47287;SDS011;33020;53.008;13.558;2022-12-07T10:08:32;2.70;;;2.00;;
47287;SDS011;33020;53.008;13.558;2022-12-07T10:11:01;2.80;;;1.60;;
47287;SDS011;33020;53.008;13.558;2022-12-07T10:13:37;2.87;;;1.77;;
47287;SDS011;33020;53.008;13.558;2022-12-07T10:16:05;3.17;;;1.90;;
47287;SDS011;33020;53.008;13.558;2022-12-07T10:18:34;4.43;;;2.50;;
47287;SDS011;33020;53.008;13.558;2022-12-07T10:21:16;4.57;;;2.40;;
47287;SDS011;33020;53.008;13.558;2022-12-07T10:24:00;4.07;;;2.05;;
47287;SDS011;33020;53.008;13.558;2022-12-07T10:26:32;4.22;;;2.15;;
47287;SDS011;33020;53.008;13.558;2022-12-07T10:28:59;4.30;;;2.33;;
47287;SDS011;33020;53.008;13.558;2022-12-07T10:31:28;4.67;;;3.80;;
47287;SDS011;33020;53.008;13.558;2022-12-07T10:33:56;3.77;;;2.60;;
47287;SDS011;33020;53.008;13.558;2022-12-07T10:36:35;3.40;;;2.27;;
47287;SDS011;33020;53.008;13.558;2022-12-07T10:39:10;2.73;;;1.93;;
47287;SDS011;33020;53.008;13.558;2022-12-07T10:41:55;3.70;;;2.43;;
47287;SDS011;33020;53.008;13.558;2022-12-07T10:44:29;3.37;;;2.30;;
47287;SDS011;33020;53.008;13.558;2022-12-07T10:49:54;5.97;;;3.23;;
47287;SDS011;33020;53.008;13.558;2022-12-07T10:53:12;5.50;;;4.33;;
47287;SDS011;33020;53.008;13.558;2022-12-07T10:55:40;8.43;;;7.63;;
47287;SDS011;33020;53.008;13.558;2022-12-07T11:03:37;6.67;;;4.40;;
47287;SDS011;33020;53.008;13.558;2022-12-07T11:06:27;8.17;;;5.33;;
47287;SDS011;33020;53.008;13.558;2022-12-07T11:11:45;8.53;;;6.30;;
47287;SDS011;33020;53.008;13.558;2022-12-07T11:19:55;4.03;;;2.73;;
47287;SDS011;33020;53.008;13.558;2022-12-07T11:22:36;5.33;;;2.80;;
47287;SDS011;33020;53.008;13.558;2022-12-07T11:27:41;4.47;;;3.80;;
47287;SDS011;33020;53.008;13.558;2022-12-07T11:32:52;4.23;;;3.33;;
47287;SDS011;33020;53.008;13.558;2022-12-07T11:35:36;6.17;;;3.53;;
47287;SDS011;33020;53.008;13.558;2022-12-07T11:38:08;4.73;;;2.80;;
47287;SDS011;33020;53.008;13.558;2022-12-07T11:40:38;3.90;;;2.60;;
47287;SDS011;33020;53.008;13.558;2022-12-07T11:46:00;3.33;;;2.53;;
47287;SDS011;33020;53.008;13.558;2022-12-07T11:48:35;3.50;;;2.40;;
47287;SDS011;33020;53.008;13.558;2022-12-07T11:51:07;6.53;;;3.20;;
47287;SDS011;33020;53.008;13.558;2022-12-07T11:54:12;4.87;;;3.30;;
47287;SDS011;33020;53.008;13.558;2022-12-07T11:56:44;11.27;;;3.63;;
47287;SDS011;33020;53.008;13.558;2022-12-07T12:02:03;5.60;;;2.57;;
47287;SDS011;33020;53.008;13.558;2022-12-07T12:04:44;4.20;;;2.93;;
47287;SDS011;33020;53.008;13.558;2022-12-07T12:07:15;4.32;;;2.63;;
47287;SDS011;33020;53.008;13.558;2022-12-07T12:10:06;5.37;;;3.10;;
47287;SDS011;33020;53.008;13.558;2022-12-07T12:15:42;4.93;;;3.10;;
47287;SDS011;33020;53.008;13.558;2022-12-07T12:21:08;8.50;;;3.10;;
47287;SDS011;33020;53.008;13.558;2022-12-07T12:23:39;4.43;;;2.70;;
47287;SDS011;33020;53.008;13.558;2022-12-07T12:26:13;4.07;;;2.50;;
47287;SDS011;33020;53.008;13.558;2022-12-07T12:28:50;4.90;;;3.00;;
47287;SDS011;33020;53.008;13.558;2022-12-07T12:31:43;5.77;;;2.73;;
47287;SDS011;33020;53.008;13.558;2022-12-07T12:34:30;4.53;;;2.70;;
47287;SDS011;33020;53.008;13.558;2022-12-07T12:42:43;8.60;;;4.07;;
47287;SDS011;33020;53.008;13.558;2022-12-07T12:45:28;6.07;;;3.40;;
47287;SDS011;33020;53.008;13.558;2022-12-07T12:53:12;8.77;;;3.67;;
47287;SDS011;33020;53.008;13.558;2022-12-07T13:00:46;5.03;;;3.47;;
47287;SDS011;33020;53.008;13.558;2022-12-07T13:03:21;9.63;;;3.63;;
47287;SDS011;33020;53.008;13.558;2022-12-07T13:06:06;5.97;;;3.93;;
47287;SDS011;33020;53.008;13.558;2022-12-07T13:08:43;8.37;;;3.63;;
47287;SDS011;33020;53.008;13.558;2022-12-07T13:17:09;5.78;;;3.78;;
47287;SDS011;33020;53.008;13.558;2022-12-07T13:25:11;7.13;;;3.97;;
47287;SDS011;33020;53.008;13.558;2022-12-07T13:28:15;5.53;;;3.57;;
47287;SDS011;33020;53.008;13.558;2022-12-07T13:33:42;7.83;;;4.70;;
47287;SDS011;33020;53.008;13.558;2022-12-07T13:36:17;7.20;;;3.80;;
47287;SDS011;33020;53.008;13.558;2022-12-07T13:38:56;7.17;;;3.67;;
47287;SDS011;33020;53.008;13.558;2022-12-07T13:41:28;8.90;;;3.90;;
47287;SDS011;33020;53.008;13.558;2022-12-07T13:44:14;5.57;;;3.27;;
47287;SDS011;33020;53.008;13.558;2022-12-07T13:46:59;4.83;;;3.50;;
47287;SDS011;33020;53.008;13.558;2022-12-07T13:49:45;6.27;;;3.10;;
47287;SDS011;33020;53.008;13.558;2022-12-07T13:52:20;7.17;;;3.63;;
47287;SDS011;33020;53.008;13.558;2022-12-07T13:57:16;4.73;;;2.60;;
47287;SDS011;33020;53.008;13.558;2022-12-07T13:59:43;7.83;;;2.80;;
47287;SDS011;33020;53.008;13.558;2022-12-07T14:02:21;3.87;;;2.57;;
47287;SDS011;33020;53.008;13.558;2022-12-07T14:04:49;4.33;;;2.40;;
47287;SDS011;33020;53.008;13.558;2022-12-07T14:07:19;4.67;;;2.73;;
47287;SDS011;33020;53.008;13.558;2022-12-07T14:09:54;6.40;;;2.77;;
47287;SDS011;33020;53.008;13.558;2022-12-07T14:12:28;4.97;;;2.57;;
47287;SDS011;33020;53.008;13.558;2022-12-07T14:14:55;6.27;;;2.70;;
47287;SDS011;33020;53.008;13.558;2022-12-07T14:17:24;4.13;;;2.40;;
47287;SDS011;33020;53.008;13.558;2022-12-07T14:20:35;4.67;;;2.33;;
47287;SDS011;33020;53.008;13.558;2022-12-07T14:22:58;6.27;;;2.97;;
47287;SDS011;33020;53.008;13.558;2022-12-07T14:25:26;6.13;;;2.40;;
47287;SDS011;33020;53.008;13.558;2022-12-07T14:28:00;5.40;;;2.63;;
47287;SDS011;33020;53.008;13.558;2022-12-07T14:30:28;8.03;;;2.80;;
47287;SDS011;33020;53.008;13.558;2022-12-07T14:32:59;7.93;;;3.07;;
47287;SDS011;33020;53.008;13.558;2022-12-07T14:35:27;7.10;;;2.93;;
47287;SDS011;33020;53.008;13.558;2022-12-07T14:37:54;3.80;;;2.10;;
47287;SDS011;33020;53.008;13.558;2022-12-07T14:40:21;6.00;;;3.27;;
47287;SDS011;33020;53.008;13.558;2022-12-07T14:42:54;6.80;;;4.07;;
47287;SDS011;33020;53.008;13.558;2022-12-07T14:45:23;8.93;;;3.90;;
47287;SDS011;33020;53.008;13.558;2022-12-07T14:47:50;6.83;;;3.20;;
47287;SDS011;33020;53.008;13.558;2022-12-07T14:50:37;2.80;;;1.70;;
47287;SDS011;33020;53.008;13.558;2022-12-07T14:53:30;3.10;;;1.80;;
47287;SDS011;33020;53.008;13.558;2022-12-07T14:56:00;2.78;;;1.80;;
47287;SDS011;33020;53.008;13.558;2022-12-07T14:58:27;3.63;;;1.87;;
47287;SDS011;33020;53.008;13.558;2022-12-07T15:00:53;3.50;;;1.70;;
47287;SDS011;33020;53.008;13.558;2022-12-07T15:03:20;3.47;;;1.20;;
47287;SDS011;33020;53.008;13.558;2022-12-07T15:05:47;3.27;;;1.50;;
47287;SDS011;33020;53.008;13.558;2022-12-07T15:08:13;9.13;;;2.70;;
47287;SDS011;33020;53.008;13.558;2022-12-07T15:10:40;6.37;;;2.80;;
47287;SDS011;33020;53.008;13.558;2022-12-07T15:13:07;5.53;;;2.10;;
47287;SDS011;33020;53.008;13.558;2022-12-07T15:15:53;4.50;;;1.80;;
47287;SDS011;33020;53.008;13.558;2022-12-07T15:18:21;6.57;;;3.10;;
47287;SDS011;33020;53.008;13.558;2022-12-07T15:20:49;5.53;;;3.10;;
47287;SDS011;33020;53.008;13.558;2022-12-07T15:23:16;4.03;;;1.23;;
47287;SDS011;33020;53.008;13.558;2022-12-07T15:25:43;3.17;;;1.20;;
47287;SDS011;33020;53.008;13.558;2022-12-07T15:28:11;4.57;;;2.10;;
47287;SDS011;33020;53.008;13.558;2022-12-07T15:30:39;2.43;;;1.57;;
47287;SDS011;33020;53.008;13.558;2022-12-07T15:33:07;6.93;;;1.70;;
47287;SDS011;33020;53.008;13.558;2022-12-07T15:35:33;4.10;;;1.23;;
47287;SDS011;33020;53.008;13.558;2022-12-07T15:38:05;3.27;;;1.60;;
47287;SDS011;33020;53.008;13.558;2022-12-07T15:40:31;1.90;;;1.23;;
47287;SDS011;33020;53.008;13.558;2022-12-07T15:42:58;4.23;;;1.80;;
47287;SDS011;33020;53.008;13.558;2022-12-07T15:45:24;7.67;;;2.47;;
47287;SDS011;33020;53.008;13.558;2022-12-07T15:47:51;3.47;;;2.00;;
47287;SDS011;33020;53.008;13.558;2022-12-07T15:50:38;3.77;;;1.57;;
47287;SDS011;33020;53.008;13.558;2022-12-07T15:53:04;4.13;;;1.73;;
47287;SDS011;33020;53.008;13.558;2022-12-07T15:55:31;4.23;;;1.73;;
47287;SDS011;33020;53.008;13.558;2022-12-07T15:57:57;2.43;;;1.80;;
47287;SDS011;33020;53.008;13.558;2022-12-07T16:00:24;2.40;;;1.60;;
47287;SDS011;33020;53.008;13.558;2022-12-07T16:02:51;3.00;;;1.10;;
47287;SDS011;33020;53.008;13.558;2022-12-07T16:05:17;5.93;;;1.63;;
47287;SDS011;33020;53.008;13.558;2022-12-07T16:07:44;3.57;;;1.33;;
47287;SDS011;33020;53.008;13.558;2022-12-07T16:10:13;3.00;;;1.40;;
47287;SDS011;33020;53.008;13.558;2022-12-07T16:12:39;3.40;;;1.87;;
47287;SDS011;33020;53.008;13.558;2022-12-07T16:15:06;2.50;;;1.00;;
47287;SDS011;33020;53.008;13.558;2022-12-07T16:17:33;8.43;;;3.07;;
47287;SDS011;33020;53.008;13.558;2022-12-07T16:20:00;7.30;;;2.50;;
47287;SDS011;33020;53.008;13.558;2022-12-07T16:22:26;8.97;;;2.43;;
47287;SDS011;33020;53.008;13.558;2022-12-07T16:24:53;6.10;;;3.73;;
47287;SDS011;33020;53.008;13.558;2022-12-07T16:27:20;2.80;;;1.30;;